Thunder radar more information blitzortung!


Radar de pluja more information rain snow radar


Visita la nostra xarxa de llocs de meteo:

Template documentation
and downloads

And another site



No particular awareness of the weather is required.    There are no Weather-warnings

Pagina Historial Weather Underground text

Diari Resum Octubre 29, 2017 Unitats:  Imperial    Mètric   Tant
« Previous Dia
SegĂźent Dia »
Diari Setmana Mensual Anual Personalitzada
  Maxima: Minima: Media:
Temperatura: 71.8 °F 49.5 °F 61.3 °F
Punt de rosada: 50.9 °F 39.6 °F 44.6 °F
Humitat: 76 % 42 % 55 %
Wind Speed: 9.2 mph 0 mph 3 mph
RĂ fegues de vent: 9.2 mph - -
Vent:- - SSE
Pression baro: 30.2 in 30 in -
Precipitacions: 0 in    
Historical Graphs
 
 
Dades de taula per Octubre 29, 2017
Temps Temperatura Punt de rosada Pression baro Vent Wind Speed RĂ fegues de vent Humitat Rainfall Rate (Hourly)
00:00 56.5 °F 47.1 °F 30.2 in ENE 2.3 mph 2.3 mph 71 % 0 in
00:05 56.5 °F 47.7 °F 30.2 in East 1.4 mph 1.4 mph 72 % 0 in
00:10 56.3 °F 47.5 °F 30.2 in East 2.3 mph   72 % 0 in
00:15 56.5 °F 47.7 °F 30.2 in West 1.2 mph 1.2 mph 72 % 0 in
00:20 56.3 °F 47.5 °F 30.2 in WNW 1.2 mph   72 % 0 in
00:25 56.1 °F 47.7 °F 30.2 in Calm     73 % 0 in
00:30 55.8 °F 46.9 °F 30.2 in SSE 2.3 mph 2.3 mph 72 % 0 in
00:36 55.6 °F 47.1 °F 30.2 in NNE 2.3 mph 2.3 mph 73 % 0 in
00:40 50.7 °F 42.6 °F 30.2 in Calm   2 mph 74 % 0 in
00:41 55.4 °F 46.9 °F 30.2 in Calm     73 % 0 in
00:46 55.2 °F 47.1 °F 30.2 in Calm     74 % 0 in
00:50 50.7 °F 42.6 °F 30.2 in WSW 1 mph 2 mph 74 % 0 in
00:51 54.9 °F 46.8 °F 30.2 in NE 1.2 mph   74 % 0 in
00:56 54.7 °F 46.9 °F 30.2 in Calm     75 % 0 in
01:00 51.4 °F 43.3 °F 30.2 in NNE 2 mph 3 mph 74 % 0 in
01:10 51.1 °F 43.2 °F 30.2 in Calm   2 mph 74 % 0 in
01:20 50.9 °F 43 °F 30.2 in West 1 mph 2 mph 74 % 0 in
01:30 50.7 °F 42.6 °F 30.2 in WNW 1 mph 2 mph 74 % 0 in
01:40 50.7 °F 42.6 °F 30.2 in NNW 1 mph 2 mph 74 % 0 in
01:50 50.5 °F 42.6 °F 30.2 in North 1 mph 2 mph 74 % 0 in
02:00 50 °F 42.1 °F 30.2 in NNW 1 mph 1 mph 74 % 0 in
02:10 49.8 °F 41.9 °F 30.2 in West 1 mph 2 mph 74 % 0 in
02:20 49.5 °F 41.9 °F 30.2 in West 1 mph 2 mph 75 % 0 in
02:30 49.5 °F 41.9 °F 30.2 in Calm   2 mph 75 % 0 in
02:40 49.5 °F 42.3 °F 30.2 in Calm     76 % 0 in
02:50 50 °F 42.6 °F 30.2 in Calm     76 % 0 in
02:00 50.7 °F 43.3 °F 30.2 in Calm   1 mph 76 % 0 in
02:10 51.3 °F 44.1 °F 30.2 in Calm     76 % 0 in
02:20 51.4 °F 43.9 °F 30.2 in Calm   2 mph 75 % 0 in
02:30 52.7 °F 45 °F 30.2 in Calm   1 mph 75 % 0 in
02:40 52.2 °F 44.1 °F 30.2 in SW 1 mph 2 mph 74 % 0 in
02:50 52.9 °F 44.8 °F 30.2 in SW 2 mph 2 mph 74 % 0 in
03:00 54.3 °F 45.9 °F 30.2 in SSW 1 mph 2 mph 73 % 0 in
03:10 54.3 °F 45.5 °F 30.2 in SSW 1 mph 2 mph 72 % 0 in
03:20 54.9 °F 45.7 °F 30.2 in SW 1 mph 2 mph 71 % 0 in
03:30 55.2 °F 45.7 °F 30.2 in SSW 2 mph 3 mph 70 % 0 in
03:40 56.8 °F 46.8 °F 30.2 in SSW 1 mph 3 mph 69 % 0 in
03:50 57.2 °F 46.2 °F 30.2 in South 1 mph 2 mph 67 % 0 in
04:00 56.8 °F 46 °F 30.2 in ESE 1 mph 2 mph 67 % 0 in
10:04 57.9 °F 46.6 °F 30.2 in ENE 4 mph 4 mph 66 % 0 in
10:05 57.9 °F 46.6 °F 30.2 in ENE 4 mph 4 mph 66 % 0 in
10:10 57.9 °F 46.6 °F 30.2 in NE 6.9 mph 6.9 mph 66 % 0 in
10:15 57.6 °F 46.2 °F 30.2 in NNE 5.8 mph 5.8 mph 66 % 0 in
10:20 57.7 °F 46 °F 30.2 in ENE 3.5 mph 3.5 mph 65 % 0 in
10:25 58.1 °F 46.4 °F 30.2 in NE 4.6 mph 4.6 mph 65 % 0 in
10:30 58.6 °F 46.9 °F 30.2 in NE 1.6 mph   65 % 0 in
10:35 59 °F 47.1 °F 30.2 in NE 4.6 mph 4.6 mph 65 % 0 in
10:40 58.8 °F 46.8 °F 30.2 in NNE 4.6 mph 4.6 mph 64 % 0 in
10:45 59.2 °F 46.9 °F 30.2 in NNE 2.3 mph 2.3 mph 64 % 0 in
10:50 59.7 °F 47.8 °F 30.2 in North 2.3 mph 2.3 mph 65 % 0 in
10:55 60.1 °F 47.8 °F 30.2 in NNE 4.6 mph 4.6 mph 64 % 0 in
11:00 60.4 °F 48.2 °F 30.2 in ENE 4.6 mph 4.6 mph 64 % 0 in
11:05 60.8 °F 48.6 °F 30.2 in North 2.4 mph 2.4 mph 64 % 0 in
11:10 60.6 °F 47.8 °F 30.2 in NE 5.8 mph 5.8 mph 63 % 0 in
11:15 60.6 °F 47.5 °F 30.2 in NE 5.8 mph 5.8 mph 62 % 0 in
11:20 61.3 °F 48.6 °F 30.2 in NE 4.6 mph 4.6 mph 63 % 0 in
11:25 61.5 °F 48.4 °F 30.2 in NNE 4.6 mph 4.6 mph 62 % 0 in
11:30 62.1 °F 48.9 °F 30.2 in NNE 3.5 mph 3.5 mph 62 % 0 in
11:35 62.2 °F 49.1 °F 30.2 in NNE 6.9 mph 6.9 mph 62 % 0 in
11:40 61.9 °F 48.4 °F 30.2 in NNE 4.6 mph 4.6 mph 61 % 0 in
11:45 62.2 °F 48.6 °F 30.2 in NNE 4.6 mph 4.6 mph 61 % 0 in
11:50 62.6 °F 48.6 °F 30.2 in ENE 3.5 mph 3.5 mph 60 % 0 in
11:55 62.8 °F 48.2 °F 30.2 in NNE 4.6 mph 4.6 mph 59 % 0 in
12:00 62.8 °F 48.2 °F 30.2 in ENE 5.8 mph 5.8 mph 59 % 0 in
12:05 63.1 °F 48.6 °F 30.2 in NNW 4.6 mph 4.6 mph 59 % 0 in
12:10 63.1 °F 48 °F 30.2 in NE 5.8 mph 5.8 mph 58 % 0 in
12:15 63.1 °F 48 °F 30.2 in NNE 6.9 mph 6.9 mph 58 % 0 in
12:20 63.9 °F 48.7 °F 30.2 in NNE 5.8 mph 5.8 mph 58 % 0 in
12:25 64 °F 48.6 °F 30.1 in NNE 4.6 mph 4.6 mph 57 % 0 in
12:30 64.8 °F 49.6 °F 30.1 in NNE 6 mph 6 mph 58 % 0 in
12:35 64.8 °F 49.3 °F 30.1 in NNE 3.5 mph 3.5 mph 57 % 0 in
12:40 65.1 °F 49.5 °F 30.1 in NNE 3.5 mph 3.5 mph 57 % 0 in
12:45 65.7 °F 50 °F 30.1 in NE 3.5 mph 3.5 mph 57 % 0 in
12:50 65.8 °F 49.6 °F 30.1 in NNE 3.5 mph 3.5 mph 56 % 0 in
12:55 66.2 °F 49.6 °F 30.1 in ENE 4.6 mph 4.6 mph 55 % 0 in
13:00 66.4 °F 49.6 °F 30.1 in NNE 3.5 mph 3.5 mph 55 % 0 in
13:05 66.7 °F 50.2 °F 30.1 in ENE 3.5 mph 3.5 mph 55 % 0 in
13:10 67.1 °F 49.8 °F 30.1 in NE 2.3 mph 2.4 mph 54 % 0 in
13:15 67.3 °F 50.5 °F 30.1 in ENE 4.9 mph 4.9 mph 55 % 0 in
13:20 66.9 °F 49.6 °F 30.1 in NNW 4.6 mph 4.6 mph 54 % 0 in
13:25 67.1 °F 49.8 °F 30.1 in NNE 5.4 mph 5.4 mph 54 % 0 in
13:30 66.7 °F 49.1 °F 30.1 in NNE 6.9 mph 6.9 mph 53 % 0 in
13:35 66.9 °F 49.3 °F 30.1 in WNW 5.8 mph 5.8 mph 53 % 0 in
13:40 67.3 °F 49.6 °F 30.1 in NNE 4.6 mph 4.6 mph 53 % 0 in
13:45 67.3 °F 49.6 °F 30.1 in ENE 4 mph 4 mph 53 % 0 in
13:50 67.3 °F 49.6 °F 30.1 in NW 4.6 mph 4.6 mph 53 % 0 in
13:55 67.6 °F 49.8 °F 30.1 in NNE 2.3 mph 2.3 mph 53 % 0 in
14:00 68 °F 49.6 °F 30.1 in SE 2.3 mph 2.3 mph 52 % 0 in
14:05 69.3 °F 50.9 °F 30.1 in WSW 3.8 mph 3.8 mph 52 % 0 in
14:10 70 °F 50.5 °F 30.1 in WSW 7.4 mph 7.4 mph 50 % 0 in
14:15 70.2 °F 50.2 °F 30.1 in SW 6.9 mph 6.9 mph 49 % 0 in
14:20 70.7 °F 50.5 °F 30.1 in SW 3.5 mph 3.5 mph 49 % 0 in
14:25 70.9 °F 50.2 °F 30.1 in West 6.9 mph 6.9 mph 48 % 0 in
14:30 70.7 °F 50 °F 30.1 in WSW 6.9 mph 6.9 mph 48 % 0 in
14:35 71.1 °F 49.8 °F 30.1 in West 4.9 mph 4.9 mph 47 % 0 in
14:40 71.2 °F 50 °F 30.1 in WSW 4.9 mph 4.9 mph 47 % 0 in
14:45 71.1 °F 48.6 °F 30.1 in WSW 8.1 mph 8.1 mph 45 % 0 in
14:50 71.1 °F 48.6 °F 30.1 in WSW 6.9 mph 6.9 mph 45 % 0 in
14:55 70.9 °F 48.6 °F 30.1 in NW 6.9 mph 6.9 mph 45 % 0 in
15:00 71.2 °F 48.7 °F 30.1 in WNW 4.6 mph 4.6 mph 45 % 0 in
15:05 71.2 °F 48.7 °F 30.1 in SW 4.3 mph 4.3 mph 45 % 0 in
15:15 71.1 °F 48 °F 30.1 in West 3.5 mph 3.5 mph 44 % 0 in
15:20 70.7 °F 47.7 °F 30.1 in West 4.6 mph 4.6 mph 44 % 0 in
15:25 71.4 °F 48.4 °F 30.1 in West 2.3 mph 2.3 mph 44 % 0 in
15:30 71.4 °F 48.9 °F 30.1 in WSW 5.4 mph 5.4 mph 45 % 0 in
15:35 71.4 °F 48.4 °F 30.1 in WSW 5.8 mph 5.8 mph 44 % 0 in
15:40 71.8 °F 48.7 °F 30 in SW 4.6 mph 4.6 mph 44 % 0 in
15:45 71.8 °F 48.7 °F 30 in West 4.6 mph 4.6 mph 44 % 0 in
15:50 71.6 °F 48.6 °F 30 in West 3.6 mph 3.6 mph 44 % 0 in
15:55 71.4 °F 48.4 °F 30.1 in West 4.6 mph 4.6 mph 44 % 0 in
16:00 71.4 °F 48.4 °F 30.1 in West 4.6 mph 4.6 mph 44 % 0 in
16:05 71.1 °F 47.5 °F 30.1 in WNW 4.6 mph 4.6 mph 43 % 0 in
16:10 71.2 °F 47.7 °F 30.1 in West 3.5 mph 3.5 mph 43 % 0 in
16:15 70.7 °F 47.1 °F 30.1 in West 4.3 mph 4.3 mph 43 % 0 in
16:20 70.3 °F 46.2 °F 30.1 in West 3.5 mph 3.5 mph 42 % 0 in
16:25 70.3 °F 46.2 °F 30.1 in West 9.2 mph 9.2 mph 42 % 0 in
16:30 70.2 °F 46 °F 30.1 in West 5.8 mph 5.8 mph 42 % 0 in
16:35 70 °F 45.9 °F 30.1 in NNW 5.8 mph 5.8 mph 42 % 0 in
16:40 69.8 °F 45.7 °F 30.1 in NW 3.5 mph 3.5 mph 42 % 0 in
16:45 69.3 °F 45.1 °F 30.1 in WNW 2.3 mph 2.3 mph 42 % 0 in
16:50 69.3 °F 45.1 °F 30.1 in WNW 4.6 mph 4.6 mph 42 % 0 in
16:55 69.1 °F 45.7 °F 30.1 in WNW 2.3 mph 2.3 mph 43 % 0 in
17:00 68.9 °F 45.5 °F 30.1 in SSW 4.3 mph 4.3 mph 43 % 0 in
17:05 68.7 °F 44.8 °F 30.1 in SW 2.3 mph 2.3 mph 42 % 0 in
17:10 68.5 °F 45.1 °F 30 in SW 2.3 mph 2.3 mph 43 % 0 in
17:15 68.2 °F 44.2 °F 30 in WSW 4.6 mph 4.6 mph 42 % 0 in
17:20 67.6 °F 43.7 °F 30 in West 3.6 mph 3.6 mph 42 % 0 in
17:21 67.6 °F 43.7 °F 30 in West 3.6 mph 3.6 mph 42 % 0 in
17:26 67.5 °F 43.5 °F 30.1 in WSW 2.4 mph 2.4 mph 42 % 0 in
17:31 67.1 °F 43.2 °F 30.1 in West 3.6 mph 3.6 mph 42 % 0 in
17:36 66.4 °F 42.6 °F 30.1 in West 4.6 mph 4.6 mph 42 % 0 in
17:41 66 °F 42.3 °F 30.1 in WNW 5.8 mph 5.8 mph 42 % 0 in
17:46 65.7 °F 41.9 °F 30.1 in SW 5.8 mph 5.8 mph 42 % 0 in
17:51 65.1 °F 41.4 °F 30.1 in West 3.5 mph 3.5 mph 42 % 0 in
17:56 64.8 °F 41.2 °F 30.1 in West 4.6 mph 4.6 mph 42 % 0 in
18:01 64.6 °F 41 °F 30.1 in WNW 3.6 mph 3.6 mph 42 % 0 in
18:06 64.2 °F 41.2 °F 30.1 in WSW 5.8 mph 5.8 mph 43 % 0 in
18:11 63.9 °F 40.8 °F 30.1 in SSE 3.5 mph 3.5 mph 43 % 0 in
18:16 63.5 °F 40.6 °F 30.1 in NW 4.6 mph 4.6 mph 43 % 0 in
18:21 63.3 °F 41 °F 30.1 in WSW 5.8 mph 5.8 mph 44 % 0 in
18:26 63.1 °F 40.3 °F 30.1 in West 5.8 mph 5.8 mph 43 % 0 in
18:31 63 °F 40.1 °F 30.1 in ENE 2.6 mph   43 % 0 in
18:36 62.8 °F 40.5 °F 30.1 in NW 2.3 mph 2.3 mph 44 % 0 in
18:41 62.6 °F 40.5 °F 30 in WNW 4.6 mph 4.6 mph 44 % 0 in
18:46 62.4 °F 40.8 °F 30 in West 2.3 mph 2.3 mph 45 % 0 in
18:51 62.1 °F 40.5 °F 30 in West 2.3 mph 2.3 mph 45 % 0 in
18:56 61.9 °F 40.3 °F 30 in West 1.6 mph 1.6 mph 45 % 0 in
19:01 61.7 °F 40.1 °F 30 in Calm     45 % 0 in
19:06 61.3 °F 40.5 °F 30 in SW 2.3 mph 2.3 mph 46 % 0 in
19:11 61.3 °F 40.5 °F 30 in WNW 1.2 mph 1.2 mph 46 % 0 in
19:16 61.2 °F 40.3 °F 30 in NW 1.4 mph 1.4 mph 46 % 0 in
19:21 61.2 °F 40.3 °F 30 in West 2.3 mph 2.3 mph 46 % 0 in
19:26 61 °F 39.9 °F 30 in WSW 3.5 mph 3.5 mph 46 % 0 in
19:31 61 °F 40.6 °F 30 in NNW 2.3 mph 2.3 mph 47 % 0 in
19:36 60.8 °F 40.5 °F 30 in NW 4.6 mph 4.6 mph 47 % 0 in
19:41 60.8 °F 40.5 °F 30.1 in North 1.6 mph 1.6 mph 47 % 0 in
19:46 60.8 °F 40.5 °F 30.1 in North 2.3 mph 2.3 mph 47 % 0 in
19:51 60.8 °F 40.5 °F 30.1 in NE 3.6 mph 3.6 mph 47 % 0 in
19:56 61.2 °F 40.8 °F 30.1 in ENE 3.5 mph 3.5 mph 47 % 0 in
20:01 60.8 °F 41 °F 30.1 in NNE 4.6 mph 4.6 mph 48 % 0 in
20:06 60.6 °F 40.8 °F 30.1 in NE 5.8 mph 5.8 mph 48 % 0 in
20:11 60.3 °F 40.5 °F 30.1 in ENE 2.3 mph 2.3 mph 48 % 0 in
20:16 59.7 °F 40.5 °F 30.1 in NNE 2.6 mph 2.6 mph 49 % 0 in
20:21 59.7 °F 40.5 °F 30.1 in NNE 3.5 mph 3.5 mph 49 % 0 in
20:26 59.4 °F 40.3 °F 30.1 in NE 2.6 mph 2.6 mph 49 % 0 in
20:31 59.2 °F 40.5 °F 30.1 in WNW 1.4 mph 1.4 mph 50 % 0 in
20:36 59 °F 40.5 °F 30.1 in NNE 2.3 mph 2.3 mph 50 % 0 in
20:41 58.8 °F 40.3 °F 30.1 in Calm     50 % 0 in
20:46 58.6 °F 39.9 °F 30.1 in NNE 3.5 mph 3.5 mph 50 % 0 in
20:51 58.3 °F 40.3 °F 30.1 in Calm     51 % 0 in
20:56 58.3 °F 40.3 °F 30.1 in NNE 3.5 mph 3.5 mph 51 % 0 in
21:01 58.3 °F 40.3 °F 30.1 in WNW 2.3 mph 2.3 mph 51 % 0 in
21:06 58.1 °F 40.1 °F 30.1 in NNE 2.6 mph 2.6 mph 51 % 0 in
21:11 58.1 °F 40.1 °F 30.1 in NNE 2.3 mph 2.3 mph 51 % 0 in
21:16 57.9 °F 40.5 °F 30.1 in NNE 3.5 mph 3.5 mph 52 % 0 in
21:21 57.9 °F 40.5 °F 30.1 in NNE 2.9 mph 2.9 mph 52 % 0 in
21:26 58.1 °F 40.6 °F 30.1 in NNE 4.6 mph 4.6 mph 52 % 0 in
21:31 57.9 °F 40.5 °F 30.1 in NNE 2 mph 2 mph 52 % 0 in
21:36 57.7 °F 40.3 °F 30.1 in NNE 3.5 mph 3.5 mph 52 % 0 in
21:41 57.7 °F 40.3 °F 30.1 in NNE 2.3 mph 2.3 mph 52 % 0 in
21:46 57.6 °F 40.5 °F 30.1 in NNE 1.4 mph 1.4 mph 53 % 0 in
21:51 57.4 °F 40.5 °F 30.1 in Calm     53 % 0 in
21:56 57.2 °F 40.3 °F 30.1 in Calm     53 % 0 in
22:01 57 °F 39.9 °F 30.1 in NW 1.2 mph 1.2 mph 53 % 0 in
22:06 57 °F 39.9 °F 30.1 in NE 2.3 mph 2.3 mph 53 % 0 in
22:11 56.8 °F 39.9 °F 30.1 in North 2 mph 2 mph 53 % 0 in
22:16 56.7 °F 40.3 °F 30.1 in NNE 1.2 mph   54 % 0 in
22:21 56.5 °F 39.9 °F 30.1 in Calm     54 % 0 in
22:26 56.3 °F 39.9 °F 30.1 in North 1.2 mph   54 % 0 in
22:31 56.1 °F 39.7 °F 30.1 in WNW 1.2 mph   54 % 0 in
22:36 55.9 °F 39.6 °F 30.1 in WNW 1.2 mph   54 % 0 in
22:41 55.9 °F 39.9 °F 30.1 in NNE 2.2 mph   55 % 0 in
22:46 55.8 °F 39.7 °F 30.1 in NNW 1.2 mph 1.2 mph 55 % 0 in
22:51 55.9 °F 39.9 °F 30.1 in East 2.4 mph 2.4 mph 55 % 0 in
22:56 55.9 °F 39.9 °F 30.1 in WSW 3.5 mph 3.5 mph 55 % 0 in
23:01 56.1 °F 40.3 °F 30.1 in NNW 2.4 mph 2.4 mph 55 % 0 in
23:06 56.5 °F 40.5 °F 30.1 in West 1.2 mph 1.2 mph 55 % 0 in
23:11 56.5 °F 40.5 °F 30.1 in Calm     55 % 0 in
23:16 56.5 °F 40.5 °F 30.1 in Calm     55 % 0 in
23:21 56.5 °F 40.5 °F 30.1 in WSW 1.2 mph   55 % 0 in
23:26 56.5 °F 40.5 °F 30 in Calm     55 % 0 in
23:31 56.5 °F 40.5 °F 30 in Calm     55 % 0 in
23:36 56.3 °F 40.3 °F 30 in North 1.4 mph 1.4 mph 55 % 0 in
23:41 56.3 °F 40.3 °F 30 in Calm     55 % 0 in
23:46 56.3 °F 40.3 °F 30 in NNE 2.3 mph 2.3 mph 55 % 0 in
23:51 56.1 °F 40.3 °F 30 in NNE 1.2 mph   55 % 0 in
23:56 55.8 °F 40.3 °F 30 in North 2.3 mph 2.3 mph 56 % 0 in
Meteo Sesrovires
Elogis d' Weather Underground - 3.5 mb

Guio original per  Jim McMurry - jmcmurry@mwt.net Adaptat per a la plantilla per  Wim van der Kuil - Leuven-Template.eu

Trobareu la nostra informacio del temps tambe a:

Weather Underground

AWEKAS